createdAt,value
2022-11-09T00:00:10.202Z,99563.75
2022-11-09T00:05:12.183Z,99567.41
2022-11-09T00:10:14.203Z,99574.59
2022-11-09T00:15:16.141Z,99580.00
2022-11-09T00:20:17.767Z,99584.06
2022-11-09T00:25:19.342Z,99582.38
2022-11-09T00:30:21.137Z,99588.50
2022-11-09T00:35:22.799Z,99585.59
2022-11-09T00:40:24.440Z,99588.63
2022-11-09T00:45:25.988Z,99584.31
2022-11-09T00:50:27.662Z,99587.00
2022-11-09T00:55:29.306Z,99588.22
2022-11-09T01:00:30.901Z,99600.19
2022-11-09T01:05:32.484Z,99596.19
2022-11-09T01:10:34.157Z,99599.34
2022-11-09T01:15:41.656Z,99596.00
2022-11-09T01:20:46.726Z,99592.88
2022-11-09T01:25:48.360Z,99598.03
2022-11-09T01:30:49.972Z,99598.31
2022-11-09T01:35:51.508Z,99597.19
2022-11-09T01:40:53.064Z,99592.72
2022-11-09T01:46:06.660Z,99588.72
2022-11-09T01:51:19.899Z,99587.78
2022-11-09T01:56:21.635Z,99594.25
2022-11-09T02:01:23.561Z,99592.47
2022-11-09T02:06:28.975Z,99592.34
2022-11-09T02:11:34.775Z,99583.00
2022-11-09T02:16:37.765Z,99589.13
2022-11-09T02:21:39.571Z,99585.78
2022-11-09T02:26:50.612Z,99584.78
2022-11-09T02:32:14.716Z,99574.09
2022-11-09T02:37:26.848Z,99566.44
2022-11-09T02:42:29.358Z,99569.16
2022-11-09T02:47:30.929Z,99570.19
2022-11-09T02:52:33.161Z,99562.31
2022-11-09T02:57:34.866Z,99569.59
2022-11-09T03:02:37.468Z,99554.59
2022-11-09T03:07:40.240Z,99553.00
2022-11-09T03:12:42.329Z,99573.00
2022-11-09T03:17:46.862Z,99565.81
2022-11-09T03:22:49.156Z,99562.13
2022-11-09T03:27:51.156Z,99564.63
2022-11-09T03:32:59.283Z,99556.81
2022-11-09T03:38:01.018Z,99562.38
2022-11-09T03:43:03.062Z,99552.03
2022-11-09T03:48:06.334Z,99564.91
2022-11-09T03:53:12.035Z,99572.47
2022-11-09T03:58:13.666Z,99579.06
2022-11-09T04:03:15.233Z,99566.78
2022-11-09T04:08:16.924Z,99572.91
2022-11-09T04:13:18.847Z,99581.72
2022-11-09T04:18:20.722Z,99568.47
2022-11-09T04:23:22.627Z,99566.00
2022-11-09T04:28:24.331Z,99563.28
2022-11-09T04:33:25.874Z,99559.66
2022-11-09T04:38:27.407Z,99575.53
2022-11-09T04:43:29.030Z,99560.69
2022-11-09T04:48:31.543Z,99566.34
2022-11-09T04:53:34.136Z,99557.72
2022-11-09T04:58:35.725Z,99559.44
2022-11-09T05:03:37.754Z,99563.63
2022-11-09T05:08:39.367Z,99562.06
2022-11-09T05:13:40.932Z,99567.44
2022-11-09T05:18:42.596Z,99575.22
2022-11-09T05:23:59.807Z,99608.16
2022-11-09T05:29:04.355Z,99595.88
2022-11-09T05:34:07.356Z,99593.75
2022-11-09T05:39:09.033Z,99596.03
2022-11-09T05:44:10.649Z,99599.69
2022-11-09T05:49:12.224Z,99608.16
2022-11-09T05:54:13.881Z,99607.50
2022-11-09T05:59:15.544Z,99598.28
2022-11-09T06:04:17.307Z,99609.94
2022-11-09T06:09:18.974Z,99609.34
2022-11-09T06:14:20.627Z,99603.09
2022-11-09T06:19:22.173Z,99602.25
2022-11-09T06:24:23.792Z,99617.22
2022-11-09T06:29:25.350Z,99630.84
2022-11-09T06:34:26.938Z,99626.81
2022-11-09T06:39:28.543Z,99627.19
2022-11-09T06:44:30.083Z,99627.28
2022-11-09T06:49:31.711Z,99618.81
2022-11-09T06:54:34.521Z,99630.41
2022-11-09T06:59:36.138Z,99625.09
2022-11-09T07:04:38.089Z,99630.66
2022-11-09T07:09:39.710Z,99620.69
2022-11-09T07:14:41.271Z,99636.66
2022-11-09T07:19:42.764Z,99641.59
2022-11-09T07:24:44.314Z,99637.50
2022-11-09T07:29:46.082Z,99643.56
2022-11-09T07:34:47.930Z,99639.94
2022-11-09T07:39:49.432Z,99655.97
2022-11-09T07:44:51.292Z,99650.31
2022-11-09T07:49:52.813Z,99655.56
2022-11-09T07:54:54.322Z,99665.88
2022-11-09T07:59:56.036Z,99662.09
2022-11-09T08:04:57.590Z,99667.81
2022-11-09T08:09:59.181Z,99678.09
2022-11-09T08:15:00.856Z,99680.06
2022-11-09T08:20:02.427Z,99677.28
2022-11-09T08:25:04.236Z,99670.38
2022-11-09T08:30:24.219Z,99669.63
2022-11-09T08:35:26.226Z,99667.78
2022-11-09T08:40:27.884Z,99672.41
2022-11-09T08:45:32.462Z,99674.88
2022-11-09T08:50:36.251Z,99678.28
2022-11-09T08:55:37.805Z,99665.84
2022-11-09T09:00:39.347Z,99665.00
2022-11-09T09:05:42.064Z,99680.00
2022-11-09T09:10:43.572Z,99677.97
2022-11-09T09:15:45.133Z,99679.78
2022-11-09T09:20:46.684Z,99684.75
2022-11-09T09:25:48.355Z,99678.06
2022-11-09T09:30:49.976Z,99683.47
2022-11-09T09:35:51.646Z,99681.88
2022-11-09T09:41:04.175Z,99684.78
2022-11-09T09:46:13.114Z,99670.72
2022-11-09T09:51:29.629Z,99674.38
2022-11-09T09:56:37.136Z,99680.13
2022-11-09T10:01:40.634Z,99680.38
2022-11-09T10:07:05.815Z,99653.69
2022-11-09T10:12:29.654Z,99647.19
2022-11-09T10:17:38.002Z,99659.69
2022-11-09T10:23:12.018Z,99649.34
2022-11-09T10:28:16.195Z,99653.50
2022-11-09T10:33:21.438Z,99645.38
2022-11-09T10:38:32.045Z,99646.50
2022-11-09T10:43:51.980Z,99643.00
2022-11-09T10:49:20.936Z,99627.91
2022-11-09T10:54:41.436Z,99629.41
2022-11-09T11:00:02.488Z,99623.88
2022-11-09T11:05:26.653Z,99612.81
2022-11-09T11:10:47.051Z,99620.59
2022-11-09T11:16:29.133Z,99623.22
2022-11-09T11:22:11.285Z,99615.72
2022-11-09T11:27:46.325Z,99624.94
2022-11-09T11:33:22.339Z,99613.59
2022-11-09T11:39:01.600Z,99625.78
2022-11-09T11:45:02.930Z,99604.13
2022-11-09T11:50:54.840Z,99599.28
2022-11-09T11:56:22.536Z,99596.19
2022-11-09T12:01:51.732Z,99602.25
2022-11-09T12:07:30.171Z,99597.66
2022-11-09T12:13:14.914Z,99587.44
2022-11-09T12:18:53.070Z,99600.66
2022-11-09T12:24:22.399Z,99600.00
2022-11-09T12:30:05.914Z,99586.97
2022-11-09T12:35:38.437Z,99583.69
2022-11-09T12:41:05.473Z,99585.56
2022-11-09T12:46:32.156Z,99586.31
2022-11-09T12:51:55.496Z,99584.47
2022-11-09T12:57:28.768Z,99594.81
2022-11-09T13:02:56.412Z,99606.38
2022-11-09T13:08:29.410Z,99601.53
2022-11-09T13:13:49.881Z,99595.19
2022-11-09T13:19:10.821Z,99593.50
2022-11-09T13:24:31.097Z,99579.47
2022-11-09T13:29:56.381Z,99584.03
2022-11-09T13:35:53.247Z,99592.25
2022-11-09T13:41:34.701Z,99593.50
2022-11-09T13:46:55.655Z,99600.28
2022-11-09T13:52:43.836Z,99600.53
2022-11-09T13:58:28.643Z,99588.91
2022-11-09T14:03:51.920Z,99595.06
2022-11-09T14:09:18.660Z,99603.31
2022-11-09T14:14:41.745Z,99617.63
2022-11-09T14:20:37.014Z,99616.66
2022-11-09T14:25:57.680Z,99609.63
2022-11-09T14:31:29.175Z,99615.38
2022-11-09T14:36:49.205Z,99621.66
2022-11-09T14:42:18.784Z,99632.16
2022-11-09T14:47:39.514Z,99640.22
2022-11-09T14:53:01.359Z,99649.91
2022-11-09T14:58:23.354Z,99646.03
2022-11-09T15:03:44.993Z,99655.06
2022-11-09T15:09:08.869Z,99658.69
2022-11-09T15:14:33.454Z,99656.31
2022-11-09T15:20:23.502Z,99664.78
2022-11-09T15:25:44.623Z,99670.47
2022-11-09T15:31:13.418Z,99662.81
2022-11-09T15:36:36.189Z,99663.75
2022-11-09T15:41:57.751Z,99675.94
2022-11-09T15:47:31.705Z,99701.88
2022-11-09T15:52:52.520Z,99704.31
2022-11-09T15:58:15.499Z,99711.53
2022-11-09T16:03:35.481Z,99720.66
2022-11-09T16:08:55.768Z,99718.69
2022-11-09T16:14:17.799Z,99721.97
2022-11-09T16:19:39.638Z,99720.16
2022-11-09T16:24:59.789Z,99727.41
2022-11-09T16:30:20.495Z,99727.38
2022-11-09T16:35:40.814Z,99734.28
2022-11-09T16:41:03.718Z,99730.56
2022-11-09T16:46:28.185Z,99728.56
2022-11-09T16:51:48.377Z,99740.47
2022-11-09T16:57:08.693Z,99747.09
2022-11-09T17:02:28.970Z,99742.97
2022-11-09T17:07:49.270Z,99746.41
2022-11-09T17:13:10.416Z,99754.63
2022-11-09T17:18:31.029Z,99755.47
2022-11-09T17:23:51.730Z,99748.66
2022-11-09T17:29:12.755Z,99748.31
2022-11-09T17:34:33.447Z,99759.56
2022-11-09T17:39:53.746Z,99758.31
2022-11-09T17:45:14.051Z,99761.38
2022-11-09T17:50:34.727Z,99772.25
2022-11-09T17:55:55.114Z,99771.13
2022-11-09T18:01:19.852Z,99773.88
2022-11-09T18:06:40.406Z,99772.31
2022-11-09T18:12:00.415Z,99783.81
2022-11-09T18:17:20.663Z,99788.34
2022-11-09T18:22:40.815Z,99780.56
2022-11-09T18:28:01.275Z,99786.78
2022-11-09T18:33:21.495Z,99781.28
2022-11-09T18:38:43.738Z,99776.81
2022-11-09T18:44:04.102Z,99778.00
2022-11-09T18:49:24.242Z,99779.97
2022-11-09T18:54:44.526Z,99784.94
2022-11-09T19:00:05.562Z,99783.03
2022-11-09T19:05:25.919Z,99779.97
2022-11-09T19:10:46.163Z,99789.84
2022-11-09T19:16:10.162Z,99798.00
2022-11-09T19:21:36.448Z,99802.19
2022-11-09T19:26:56.768Z,99808.00
2022-11-09T19:32:17.077Z,99814.25
2022-11-09T19:37:37.302Z,99816.00
2022-11-09T19:42:57.595Z,99818.19
2022-11-09T19:48:18.121Z,99823.31
2022-11-09T19:53:42.344Z,99818.84
2022-11-09T19:59:04.359Z,99825.00
2022-11-09T20:04:24.790Z,99835.84
2022-11-09T20:09:45.018Z,99834.81
2022-11-09T20:15:06.292Z,99831.31
2022-11-09T20:20:26.279Z,99830.09
2022-11-09T20:25:46.590Z,99830.50
2022-11-09T20:31:12.535Z,99831.59
2022-11-09T20:36:32.597Z,99844.25
2022-11-09T20:41:52.861Z,99836.06
2022-11-09T20:47:13.211Z,99844.78
2022-11-09T20:52:33.584Z,99851.47
2022-11-09T20:57:58.490Z,99849.19
2022-11-09T21:03:18.902Z,99848.56
2022-11-09T21:08:39.604Z,99854.63
2022-11-09T21:14:00.195Z,99863.44
2022-11-09T21:19:20.336Z,99875.97
2022-11-09T21:24:59.238Z,99879.19
2022-11-09T21:30:19.716Z,99878.97
2022-11-09T21:35:40.271Z,99871.13
2022-11-09T21:41:21.117Z,99874.47
2022-11-09T21:46:42.938Z,99872.66
2022-11-09T21:52:03.859Z,99876.22
2022-11-09T21:57:24.109Z,99890.41
2022-11-09T22:02:44.361Z,99900.53
2022-11-09T22:08:04.873Z,99903.03
2022-11-09T22:13:43.527Z,99909.31
2022-11-09T22:19:22.380Z,99918.31
2022-11-09T22:24:42.497Z,99910.63
2022-11-09T22:30:03.039Z,99905.16
2022-11-09T22:35:23.069Z,99897.97
2022-11-09T22:40:43.302Z,99889.97
2022-11-09T22:46:04.458Z,99899.56
2022-11-09T22:51:24.897Z,99890.34
2022-11-09T22:56:44.955Z,99898.28
2022-11-09T23:02:05.073Z,99898.56
2022-11-09T23:07:25.504Z,99911.06
2022-11-09T23:12:45.836Z,99920.50
2022-11-09T23:18:24.639Z,99932.38
2022-11-09T23:23:45.168Z,99950.97
2022-11-09T23:29:05.278Z,99959.03
2022-11-09T23:34:25.862Z,99966.38
2022-11-09T23:39:46.131Z,99969.34
2022-11-09T23:45:07.637Z,99967.94
2022-11-09T23:50:28.458Z,99975.59
2022-11-09T23:55:48.758Z,99985.88
